createdAt,value
2023-01-19T00:00:55.879Z,96757.00
2023-01-19T00:06:18.009Z,96743.00
2023-01-19T00:11:39.897Z,96747.00
2023-01-19T00:17:01.989Z,96748.00
2023-01-19T00:22:23.419Z,96746.00
2023-01-19T00:27:49.488Z,96761.00
2023-01-19T00:33:14.614Z,96765.00
2023-01-19T00:38:36.249Z,96768.00
2023-01-19T00:43:57.702Z,96750.00
2023-01-19T00:49:19.280Z,96758.00
2023-01-19T00:54:40.756Z,96777.00
2023-01-19T01:00:02.114Z,96779.00
2023-01-19T01:05:36.841Z,96774.00
2023-01-19T01:11:21.913Z,96768.00
2023-01-19T01:22:47.606Z,96788.00
2023-01-19T01:28:26.533Z,96772.00
2023-01-19T01:33:54.706Z,96788.00
2023-01-19T01:39:17.221Z,96783.00
2023-01-19T01:44:53.085Z,96800.00
2023-01-19T01:50:19.058Z,96803.00
2023-01-19T01:56:03.062Z,96802.00
2023-01-19T02:01:56.200Z,96804.00
2023-01-19T02:08:06.003Z,96804.00
2023-01-19T02:13:56.700Z,96807.00
2023-01-19T02:20:00.179Z,96814.00
2023-01-19T02:25:28.026Z,96815.00
2023-01-19T02:31:05.111Z,96812.00
2023-01-19T02:37:15.084Z,96822.00
2023-01-19T02:42:57.920Z,96820.00
2023-01-19T02:48:21.679Z,96817.00
2023-01-19T02:54:00.201Z,96820.00
2023-01-19T02:59:23.545Z,96815.00
2023-01-19T03:05:14.444Z,96833.00
2023-01-19T03:11:21.752Z,96839.00
2023-01-19T03:17:08.547Z,96845.00
2023-01-19T03:22:49.080Z,96843.00
2023-01-19T03:28:33.192Z,96843.00
2023-01-19T03:34:07.388Z,96835.00
2023-01-19T03:39:30.266Z,96855.00
2023-01-19T03:44:56.634Z,96848.00
2023-01-19T03:50:28.434Z,96846.00
2023-01-19T03:55:54.952Z,96856.00
2023-01-19T04:01:33.306Z,96846.00
2023-01-19T04:07:08.605Z,96837.00
2023-01-19T04:12:40.745Z,96851.00
2023-01-19T04:18:21.054Z,96846.00
2023-01-19T04:23:58.941Z,96854.00
2023-01-19T04:29:21.126Z,96852.00
2023-01-19T04:34:42.611Z,96850.00
2023-01-19T04:40:03.825Z,96842.00
2023-01-19T04:45:28.595Z,96857.00
2023-01-19T04:50:56.382Z,96863.00
2023-01-19T04:56:30.045Z,96864.00
2023-01-19T05:02:03.825Z,96865.00
2023-01-19T05:07:38.606Z,96872.00
2023-01-19T05:13:06.998Z,96877.00
2023-01-19T05:18:36.458Z,96872.00
2023-01-19T05:24:04.831Z,96868.00
2023-01-19T05:29:27.135Z,96863.00
2023-01-19T05:34:48.517Z,96867.00
2023-01-19T05:40:10.999Z,96853.00
2023-01-19T05:45:32.358Z,96866.00
2023-01-19T05:51:23.881Z,96864.00
2023-01-19T05:57:12.402Z,96864.00
2023-01-19T06:03:06.319Z,96861.00
2023-01-19T06:08:33.592Z,96871.00
2023-01-19T06:14:00.820Z,96872.00
2023-01-19T06:19:22.335Z,96877.00
2023-01-19T06:24:43.822Z,96872.00
2023-01-19T06:30:06.598Z,96873.00
2023-01-19T06:35:30.950Z,96885.00
2023-01-19T06:41:19.163Z,96893.00
2023-01-19T06:47:16.008Z,96892.00
2023-01-19T06:53:02.883Z,96902.00
2023-01-19T06:58:43.757Z,96902.00
2023-01-19T07:04:14.114Z,96910.00
2023-01-19T07:09:35.493Z,96901.00
2023-01-19T07:14:56.983Z,96903.00
2023-01-19T07:20:19.723Z,96920.00
2023-01-19T07:25:40.844Z,96937.00
2023-01-19T07:31:28.881Z,96919.00
2023-01-19T07:37:16.325Z,96918.00
2023-01-19T07:42:55.304Z,96932.00
2023-01-19T07:48:38.376Z,96928.00
2023-01-19T07:54:12.079Z,96938.00
2023-01-19T07:59:34.377Z,96944.00
2023-01-19T08:05:11.227Z,96957.00
2023-01-19T08:10:40.366Z,96962.00
2023-01-19T08:16:15.664Z,96970.00
2023-01-19T08:21:39.462Z,96973.00
2023-01-19T08:27:19.504Z,96976.00
2023-01-19T08:33:30.068Z,96981.00
2023-01-19T08:39:03.932Z,96988.00
2023-01-19T08:44:25.389Z,96984.00
2023-01-19T08:49:46.911Z,96993.00
2023-01-19T08:55:09.337Z,96986.00
2023-01-19T09:00:31.884Z,96989.00
2023-01-19T09:06:12.883Z,96993.00
2023-01-19T09:11:50.188Z,96998.00
2023-01-19T09:17:25.734Z,97002.00
2023-01-19T09:23:03.318Z,97010.00
2023-01-19T09:28:37.055Z,97005.00
2023-01-19T09:34:06.144Z,97025.00
2023-01-19T09:39:28.935Z,97021.00
2023-01-19T09:44:53.399Z,97023.00
2023-01-19T09:50:31.982Z,97026.00
2023-01-19T09:55:56.769Z,97002.00
2023-01-19T10:07:44.424Z,96999.00
2023-01-19T10:13:45.382Z,96993.00
2023-01-19T10:19:38.236Z,96996.00
2023-01-19T10:25:14.414Z,97001.00
2023-01-19T10:30:36.155Z,96982.00
2023-01-19T10:36:27.033Z,96999.00
2023-01-19T10:42:11.165Z,96996.00
2023-01-19T10:48:01.800Z,96992.00
2023-01-19T10:53:39.966Z,96998.00
2023-01-19T10:59:09.430Z,96980.00
2023-01-19T11:04:50.295Z,96997.00
2023-01-19T11:10:34.745Z,96997.00
2023-01-19T11:16:36.827Z,96986.00
2023-01-19T11:22:48.902Z,96990.00
2023-01-19T11:28:49.170Z,96981.00
2023-01-19T11:34:31.432Z,96977.00
2023-01-19T11:39:58.398Z,96976.00
2023-01-19T11:45:20.391Z,96981.00
2023-01-19T11:50:57.270Z,96986.00
2023-01-19T11:56:30.279Z,96992.00
2023-01-19T12:02:31.726Z,96996.00
2023-01-19T12:08:05.500Z,96993.00
2023-01-19T12:13:31.976Z,96986.00
2023-01-19T12:19:20.286Z,96998.00
2023-01-19T12:24:54.772Z,96998.00
2023-01-19T12:30:29.745Z,97003.00
2023-01-19T12:36:34.947Z,96996.00
2023-01-19T12:42:29.591Z,96999.00
2023-01-19T12:47:58.860Z,96981.00
2023-01-19T12:53:37.593Z,96986.00
2023-01-19T12:59:06.337Z,96990.00
2023-01-19T13:04:46.457Z,96985.00
2023-01-19T13:10:52.046Z,96979.00
2023-01-19T13:16:19.802Z,96979.00
2023-01-19T13:21:49.649Z,96988.00
2023-01-19T13:27:20.902Z,96984.00
2023-01-19T13:32:59.883Z,96970.00
2023-01-19T13:38:39.373Z,96977.00
2023-01-19T13:44:36.299Z,96988.00
2023-01-19T13:49:58.877Z,96997.00
2023-01-19T13:55:20.913Z,96988.00
2023-01-19T14:00:46.690Z,97003.00
2023-01-19T14:06:39.131Z,97008.00
2023-01-19T14:12:32.406Z,97010.00
2023-01-19T14:18:32.483Z,97015.00
2023-01-19T14:24:18.418Z,97010.00
2023-01-19T14:29:39.898Z,97007.00
2023-01-19T14:35:04.708Z,97006.00
2023-01-19T14:40:28.947Z,97013.00
2023-01-19T14:52:09.695Z,97016.00
2023-01-19T14:57:42.221Z,97017.00
2023-01-19T15:03:13.442Z,97016.00
2023-01-19T15:08:45.331Z,97021.00
2023-01-19T15:14:15.684Z,97027.00
2023-01-19T15:19:38.561Z,97026.00
2023-01-19T15:25:00.529Z,97021.00
2023-01-19T15:30:28.026Z,97031.00
2023-01-19T15:35:57.595Z,97022.00
2023-01-19T15:41:27.764Z,97016.00
2023-01-19T15:47:21.253Z,97019.00
2023-01-19T15:52:53.687Z,97018.00
2023-01-19T15:58:23.009Z,97021.00
2023-01-19T16:04:00.679Z,97027.00
2023-01-19T16:09:27.855Z,97020.00
2023-01-19T16:14:49.652Z,97037.00
2023-01-19T16:20:14.661Z,97047.00
2023-01-19T16:25:36.042Z,97045.00
2023-01-19T16:31:26.260Z,97049.00
2023-01-19T16:37:19.214Z,97042.00
2023-01-19T16:42:56.316Z,97053.00
2023-01-19T16:48:30.767Z,97054.00
2023-01-19T16:53:54.289Z,97050.00
2023-01-19T16:59:23.479Z,97042.00
2023-01-19T17:05:05.401Z,97058.00
2023-01-19T17:10:35.792Z,97040.00
2023-01-19T17:16:27.440Z,97036.00
2023-01-19T17:22:08.628Z,97049.00
2023-01-19T17:27:49.216Z,97051.00
2023-01-19T17:33:22.260Z,97054.00
2023-01-19T17:38:54.970Z,97066.00
2023-01-19T17:44:18.107Z,97073.00
2023-01-19T17:49:39.635Z,97079.00
2023-01-19T17:55:01.296Z,97090.00
2023-01-19T18:00:23.209Z,97082.00
2023-01-19T18:06:00.707Z,97082.00
2023-01-19T18:11:30.403Z,97084.00
2023-01-19T18:17:23.174Z,97090.00
2023-01-19T18:22:51.815Z,97092.00
2023-01-19T18:28:26.375Z,97095.00
2023-01-19T18:33:57.973Z,97106.00
2023-01-19T18:39:20.039Z,97107.00
2023-01-19T18:44:41.494Z,97096.00
2023-01-19T18:50:02.917Z,97107.00
2023-01-19T18:55:29.416Z,97105.00
2023-01-19T19:00:51.429Z,97112.00
2023-01-19T19:06:34.170Z,97112.00
2023-01-19T19:12:18.733Z,97115.00
2023-01-19T19:17:59.106Z,97123.00
2023-01-19T19:23:38.744Z,97103.00
2023-01-19T19:29:08.990Z,97126.00
2023-01-19T19:34:31.518Z,97117.00
2023-01-19T19:39:53.098Z,97126.00
2023-01-19T19:45:16.426Z,97131.00
2023-01-19T19:50:38.137Z,97137.00
2023-01-19T19:56:24.564Z,97148.00
2023-01-19T20:02:00.162Z,97164.00
2023-01-19T20:07:45.712Z,97159.00
2023-01-19T20:13:09.235Z,97164.00
2023-01-19T20:18:46.124Z,97157.00
2023-01-19T20:24:16.438Z,97162.00
2023-01-19T20:29:38.220Z,97177.00
2023-01-19T20:34:59.681Z,97179.00
2023-01-19T20:40:21.270Z,97172.00
2023-01-19T20:45:42.782Z,97185.00
2023-01-19T20:51:26.717Z,97192.00
2023-01-19T20:57:17.609Z,97190.00
2023-01-19T21:03:13.563Z,97204.00
2023-01-19T21:08:50.201Z,97211.00
2023-01-19T21:14:15.415Z,97213.00
2023-01-19T21:19:36.996Z,97216.00
2023-01-19T21:24:58.547Z,97220.00
2023-01-19T21:30:19.957Z,97223.00
2023-01-19T21:35:58.010Z,97242.00
2023-01-19T21:42:02.452Z,97236.00
2023-01-19T21:53:33.055Z,97246.00
2023-01-19T21:59:07.504Z,97260.00
2023-01-19T22:04:46.029Z,97264.00
2023-01-19T22:10:11.942Z,97259.00
2023-01-19T22:15:33.178Z,97274.00
2023-01-19T22:20:55.146Z,97280.00
2023-01-19T22:26:22.170Z,97268.00
2023-01-19T22:32:01.458Z,97279.00
2023-01-19T22:37:51.270Z,97275.00
2023-01-19T22:43:27.840Z,97293.00
2023-01-19T22:49:01.998Z,97286.00
2023-01-19T22:54:26.452Z,97284.00
2023-01-19T22:59:48.072Z,97286.00
2023-01-19T23:06:03.883Z,97281.00
2023-01-19T23:11:35.698Z,97288.00
2023-01-19T23:17:18.677Z,97281.00
2023-01-19T23:22:47.470Z,97287.00
2023-01-19T23:28:18.935Z,97290.00
2023-01-19T23:33:49.770Z,97296.00
2023-01-19T23:39:20.916Z,97294.00
2023-01-19T23:44:44.133Z,97293.00
2023-01-19T23:50:05.955Z,97301.00
2023-01-19T23:55:28.351Z,97291.00
